sensor_id;sensor_type;location;lat;lon;timestamp;pressure;altitude;pressure_sealevel;temperature;humidity
13974;BME280;7060;43.770;4.008;2023-06-14T00:00:41;100395.13;;;19.23;78.85
13974;BME280;7060;43.770;4.008;2023-06-14T00:03:11;100391.78;;;19.21;78.87
13974;BME280;7060;43.770;4.008;2023-06-14T00:05:45;100381.16;;;19.07;78.96
13974;BME280;7060;43.770;4.008;2023-06-14T00:08:14;100399.09;;;19.21;79.24
13974;BME280;7060;43.770;4.008;2023-06-14T00:10:42;100399.94;;;19.21;79.19
13974;BME280;7060;43.770;4.008;2023-06-14T00:13:12;100398.88;;;19.22;79.21
13974;BME280;7060;43.770;4.008;2023-06-14T00:15:42;100397.00;;;19.23;79.22
13974;BME280;7060;43.770;4.008;2023-06-14T00:18:11;100394.50;;;19.21;79.17
13974;BME280;7060;43.770;4.008;2023-06-14T00:20:43;100395.34;;;19.22;78.95
13974;BME280;7060;43.770;4.008;2023-06-14T00:23:13;100397.44;;;19.20;79.12
13974;BME280;7060;43.770;4.008;2023-06-14T00:25:42;100398.69;;;19.17;79.34
13974;BME280;7060;43.770;4.008;2023-06-14T00:28:12;100406.38;;;19.20;79.20
13974;BME280;7060;43.770;4.008;2023-06-14T00:30:42;100401.38;;;19.17;79.35
13974;BME280;7060;43.770;4.008;2023-06-14T00:33:12;100405.13;;;19.16;79.00
13974;BME280;7060;43.770;4.008;2023-06-14T00:35:43;100399.94;;;19.15;79.30
13974;BME280;7060;43.770;4.008;2023-06-14T00:38:11;100405.13;;;19.16;79.07
13974;BME280;7060;43.770;4.008;2023-06-14T00:40:40;100415.13;;;19.16;79.16
13974;BME280;7060;43.770;4.008;2023-06-14T00:43:14;100408.88;;;19.15;79.32
13974;BME280;7060;43.770;4.008;2023-06-14T00:45:42;100415.13;;;19.16;79.58
13974;BME280;7060;43.770;4.008;2023-06-14T00:48:13;100401.38;;;19.17;79.51
13974;BME280;7060;43.770;4.008;2023-06-14T00:50:43;100397.84;;;19.17;79.50
13974;BME280;7060;43.770;4.008;2023-06-14T00:53:15;100396.16;;;19.16;79.48
13974;BME280;7060;43.770;4.008;2023-06-14T00:55:44;100399.31;;;19.13;79.64
13974;BME280;7060;43.770;4.008;2023-06-14T00:58:17;100385.34;;;19.09;79.60
13974;BME280;7060;43.770;4.008;2023-06-14T01:00:46;100385.53;;;19.08;79.79
13974;BME280;7060;43.770;4.008;2023-06-14T01:03:15;100389.09;;;19.08;80.05
13974;BME280;7060;43.770;4.008;2023-06-14T01:05:56;100387.63;;;19.06;79.91
13974;BME280;7060;43.770;4.008;2023-06-14T01:08:37;100395.97;;;19.11;79.93
13974;BME280;7060;43.770;4.008;2023-06-14T01:11:16;100389.50;;;19.12;79.85
13974;BME280;7060;43.770;4.008;2023-06-14T01:13:49;100383.03;;;19.13;79.87
13974;BME280;7060;43.770;4.008;2023-06-14T01:16:22;100384.09;;;19.12;79.98
13974;BME280;7060;43.770;4.008;2023-06-14T01:18:53;100383.88;;;19.13;79.83
13974;BME280;7060;43.770;4.008;2023-06-14T01:21:24;100383.03;;;19.13;79.97
13974;BME280;7060;43.770;4.008;2023-06-14T01:23:54;100385.53;;;19.14;79.69
13974;BME280;7060;43.770;4.008;2023-06-14T01:26:25;100385.75;;;19.13;79.72
13974;BME280;7060;43.770;4.008;2023-06-14T01:28:59;100383.47;;;19.10;79.82
13974;BME280;7060;43.770;4.008;2023-06-14T01:31:28;100384.50;;;19.09;79.73
13974;BME280;7060;43.770;4.008;2023-06-14T01:34:07;100360.75;;;18.91;79.60
13974;BME280;7060;43.770;4.008;2023-06-14T01:36:37;100389.09;;;19.08;79.53
13974;BME280;7060;43.770;4.008;2023-06-14T01:39:12;100390.13;;;19.07;79.27
13974;BME280;7060;43.770;4.008;2023-06-14T01:41:42;100386.38;;;19.02;79.32
13974;BME280;7060;43.770;4.008;2023-06-14T01:44:12;100374.31;;;18.91;79.35
13974;BME280;7060;43.770;4.008;2023-06-14T01:46:43;100384.94;;;18.92;79.41
13974;BME280;7060;43.770;4.008;2023-06-14T01:49:12;100383.47;;;18.90;79.44
13974;BME280;7060;43.770;4.008;2023-06-14T01:51:41;100383.88;;;18.87;79.31
13974;BME280;7060;43.770;4.008;2023-06-14T01:54:11;100378.88;;;18.84;79.35
13974;BME280;7060;43.770;4.008;2023-06-14T01:56:39;100379.28;;;18.81;79.57
13974;BME280;7060;43.770;4.008;2023-06-14T01:59:08;100358.47;;;18.81;79.69
13974;BME280;7060;43.770;4.008;2023-06-14T02:01:37;100369.09;;;18.89;79.61
13974;BME280;7060;43.770;4.008;2023-06-14T02:04:05;100369.72;;;18.91;79.39
13974;BME280;7060;43.770;4.008;2023-06-14T02:06:34;100333.06;;;18.69;79.24
13974;BME280;7060;43.770;4.008;2023-06-14T02:09:03;100378.06;;;18.90;79.26
13974;BME280;7060;43.770;4.008;2023-06-14T02:11:33;100370.97;;;18.89;79.13
13974;BME280;7060;43.770;4.008;2023-06-14T02:14:02;100366.38;;;18.89;79.17
13974;BME280;7060;43.770;4.008;2023-06-14T02:16:31;100367.00;;;18.91;79.26
13974;BME280;7060;43.770;4.008;2023-06-14T02:19:03;100371.41;;;18.92;78.96
13974;BME280;7060;43.770;4.008;2023-06-14T02:21:31;100371.81;;;18.89;78.87
13974;BME280;7060;43.770;4.008;2023-06-14T02:24:00;100363.47;;;18.84;79.08
13974;BME280;7060;43.770;4.008;2023-06-14T02:26:28;100372.00;;;18.81;78.91
13974;BME280;7060;43.770;4.008;2023-06-14T02:28:58;100373.88;;;18.81;79.05
13974;BME280;7060;43.770;4.008;2023-06-14T02:31:27;100372.22;;;18.80;79.24
13974;BME280;7060;43.770;4.008;2023-06-14T02:33:56;100364.72;;;18.82;79.04
13974;BME280;7060;43.770;4.008;2023-06-14T02:36:24;100377.44;;;18.81;78.58
13974;BME280;7060;43.770;4.008;2023-06-14T02:38:54;100376.78;;;18.79;78.44
13974;BME280;7060;43.770;4.008;2023-06-14T02:41:24;100379.28;;;18.74;78.53
13974;BME280;7060;43.770;4.008;2023-06-14T02:43:53;100375.13;;;18.72;78.42
13974;BME280;7060;43.770;4.008;2023-06-14T02:46:24;100377.19;;;18.70;78.57
13974;BME280;7060;43.770;4.008;2023-06-14T02:48:52;100378.47;;;18.67;78.62
13974;BME280;7060;43.770;4.008;2023-06-14T02:51:21;100380.34;;;18.67;78.52
13974;BME280;7060;43.770;4.008;2023-06-14T02:53:50;100385.97;;;18.65;78.42
13974;BME280;7060;43.770;4.008;2023-06-14T02:56:19;100378.88;;;18.64;78.30
13974;BME280;7060;43.770;4.008;2023-06-14T02:59:08;100386.59;;;18.60;78.42
13974;BME280;7060;43.770;4.008;2023-06-14T03:01:40;100391.38;;;18.58;77.78
13974;BME280;7060;43.770;4.008;2023-06-14T03:04:12;100379.03;;;18.49;77.93
13974;BME280;7060;43.770;4.008;2023-06-14T03:06:42;100386.72;;;18.46;77.99
13974;BME280;7060;43.770;4.008;2023-06-14T03:09:13;100387.13;;;18.43;78.21
13974;BME280;7060;43.770;4.008;2023-06-14T03:11:42;100388.19;;;18.42;78.15
13974;BME280;7060;43.770;4.008;2023-06-14T03:14:11;100389.22;;;18.41;77.79
13974;BME280;7060;43.770;4.008;2023-06-14T03:16:43;100398.59;;;18.38;77.67
13974;BME280;7060;43.770;4.008;2023-06-14T03:19:13;100397.53;;;18.33;77.75
13974;BME280;7060;43.770;4.008;2023-06-14T03:21:42;100391.69;;;18.29;77.85
13974;BME280;7060;43.770;4.008;2023-06-14T03:24:12;100396.69;;;18.25;77.76
13974;BME280;7060;43.770;4.008;2023-06-14T03:26:40;100397.72;;;18.24;77.66
13974;BME280;7060;43.770;4.008;2023-06-14T03:29:09;100391.25;;;18.19;77.74
13974;BME280;7060;43.770;4.008;2023-06-14T03:31:56;100390.00;;;18.21;77.65
13974;BME280;7060;43.770;4.008;2023-06-14T03:34:28;100385.63;;;18.14;77.98
13974;BME280;7060;43.770;4.008;2023-06-14T03:36:57;100389.38;;;18.13;77.79
13974;BME280;7060;43.770;4.008;2023-06-14T03:39:27;100382.28;;;18.12;78.07
13974;BME280;7060;43.770;4.008;2023-06-14T03:41:56;100379.16;;;18.15;77.97
13974;BME280;7060;43.770;4.008;2023-06-14T03:44:26;100368.13;;;18.10;77.65
13974;BME280;7060;43.770;4.008;2023-06-14T03:46:56;100390.00;;;18.21;77.42
13974;BME280;7060;43.770;4.008;2023-06-14T03:49:26;100381.25;;;18.19;77.13
13974;BME280;7060;43.770;4.008;2023-06-14T03:51:55;100378.34;;;18.14;77.29
13974;BME280;7060;43.770;4.008;2023-06-14T03:54:24;100382.28;;;18.12;76.96
13974;BME280;7060;43.770;4.008;2023-06-14T03:57:14;100376.22;;;18.03;77.29
13974;BME280;7060;43.770;4.008;2023-06-14T03:59:44;100378.94;;;18.03;77.42
13974;BME280;7060;43.770;4.008;2023-06-14T04:02:15;100380.78;;;18.03;77.49
13974;BME280;7060;43.770;4.008;2023-06-14T04:04:45;100382.03;;;18.00;77.74
13974;BME280;7060;43.770;4.008;2023-06-14T04:07:15;100383.25;;;17.98;77.91
13974;BME280;7060;43.770;4.008;2023-06-14T04:09:46;100389.50;;;17.98;77.83
13974;BME280;7060;43.770;4.008;2023-06-14T04:12:15;100389.09;;;18.01;77.90
13974;BME280;7060;43.770;4.008;2023-06-14T04:14:44;100391.41;;;18.04;77.55
13974;BME280;7060;43.770;4.008;2023-06-14T04:17:15;100389.13;;;18.08;77.46
13974;BME280;7060;43.770;4.008;2023-06-14T04:19:44;100387.66;;;18.05;77.78
13974;BME280;7060;43.770;4.008;2023-06-14T04:22:14;100387.47;;;18.07;77.52
13974;BME280;7060;43.770;4.008;2023-06-14T04:24:43;100385.41;;;18.09;77.46
13974;BME280;7060;43.770;4.008;2023-06-14T04:27:16;100393.13;;;18.12;77.44
13974;BME280;7060;43.770;4.008;2023-06-14T04:29:49;100401.44;;;18.17;77.20
13974;BME280;7060;43.770;4.008;2023-06-14T04:32:28;100409.34;;;18.18;77.57
13974;BME280;7060;43.770;4.008;2023-06-14T04:35:01;100406.84;;;18.17;77.63
13974;BME280;7060;43.770;4.008;2023-06-14T04:37:31;100407.03;;;18.15;77.67
13974;BME280;7060;43.770;4.008;2023-06-14T04:40:00;100407.28;;;18.14;78.04
13974;BME280;7060;43.770;4.008;2023-06-14T04:42:36;100412.88;;;18.12;78.50
13974;BME280;7060;43.770;4.008;2023-06-14T04:45:07;100414.13;;;18.16;78.65
13974;BME280;7060;43.770;4.008;2023-06-14T04:47:39;100411.66;;;18.21;78.55
13974;BME280;7060;43.770;4.008;2023-06-14T04:50:09;100418.72;;;18.22;78.61
13974;BME280;7060;43.770;4.008;2023-06-14T04:52:40;100419.75;;;18.21;78.60
13974;BME280;7060;43.770;4.008;2023-06-14T04:55:10;100419.75;;;18.21;78.88
13974;BME280;7060;43.770;4.008;2023-06-14T04:57:38;100422.06;;;18.24;79.12
13974;BME280;7060;43.770;4.008;2023-06-14T05:00:09;100427.31;;;18.33;79.52
13974;BME280;7060;43.770;4.008;2023-06-14T05:02:40;100427.13;;;18.41;79.83
13974;BME280;7060;43.770;4.008;2023-06-14T05:05:09;100429.63;;;18.49;79.86
13974;BME280;7060;43.770;4.008;2023-06-14T05:07:38;100431.16;;;18.58;79.90
13974;BME280;7060;43.770;4.008;2023-06-14T05:10:09;100440.97;;;18.66;80.01
13974;BME280;7060;43.770;4.008;2023-06-14T05:12:38;100445.31;;;18.73;79.91
13974;BME280;7060;43.770;4.008;2023-06-14T05:15:09;100446.38;;;18.79;79.98
13974;BME280;7060;43.770;4.008;2023-06-14T05:17:38;100454.50;;;18.85;80.03
13974;BME280;7060;43.770;4.008;2023-06-14T05:20:09;100450.16;;;18.91;80.08
13974;BME280;7060;43.770;4.008;2023-06-14T05:22:38;100448.06;;;18.93;80.01
13974;BME280;7060;43.770;4.008;2023-06-14T05:25:07;100450.13;;;18.98;80.08
13974;BME280;7060;43.770;4.008;2023-06-14T05:27:36;100454.72;;;19.04;80.03
13974;BME280;7060;43.770;4.008;2023-06-14T05:30:05;100456.00;;;19.08;79.88
13974;BME280;7060;43.770;4.008;2023-06-14T05:32:34;100456.63;;;19.10;79.97
13974;BME280;7060;43.770;4.008;2023-06-14T05:35:03;100450.56;;;19.14;80.06
13974;BME280;7060;43.770;4.008;2023-06-14T05:37:34;100443.50;;;19.20;79.90
13974;BME280;7060;43.770;4.008;2023-06-14T05:40:03;100446.63;;;19.23;79.89
13974;BME280;7060;43.770;4.008;2023-06-14T05:42:33;100457.84;;;19.27;80.35
13974;BME280;7060;43.770;4.008;2023-06-14T05:45:02;100456.19;;;19.33;80.35
13974;BME280;7060;43.770;4.008;2023-06-14T05:47:30;100463.91;;;19.36;80.21
13974;BME280;7060;43.770;4.008;2023-06-14T05:49:59;100465.19;;;19.40;80.56
13974;BME280;7060;43.770;4.008;2023-06-14T05:52:27;100464.97;;;19.48;80.68
13974;BME280;7060;43.770;4.008;2023-06-14T05:54:58;100463.91;;;19.55;80.37
13974;BME280;7060;43.770;4.008;2023-06-14T05:57:27;100463.28;;;19.60;80.35
13974;BME280;7060;43.770;4.008;2023-06-14T05:59:55;100474.13;;;19.67;80.11
13974;BME280;7060;43.770;4.008;2023-06-14T06:02:24;100464.94;;;19.74;80.01
13974;BME280;7060;43.770;4.008;2023-06-14T06:04:53;100464.31;;;19.79;79.97
13974;BME280;7060;43.770;4.008;2023-06-14T06:07:22;100470.09;;;19.89;80.06
13974;BME280;7060;43.770;4.008;2023-06-14T06:09:50;100473.63;;;19.96;80.16
13974;BME280;7060;43.770;4.008;2023-06-14T06:12:20;100469.66;;;20.05;79.85
13974;BME280;7060;43.770;4.008;2023-06-14T06:14:49;100470.25;;;20.07;79.77
13974;BME280;7060;43.770;4.008;2023-06-14T06:17:18;100467.50;;;20.14;79.68
13974;BME280;7060;43.770;4.008;2023-06-14T06:19:47;100468.34;;;20.21;79.30
13974;BME280;7060;43.770;4.008;2023-06-14T06:22:15;100466.22;;;20.30;79.26
13974;BME280;7060;43.770;4.008;2023-06-14T06:24:44;100474.13;;;20.38;78.96
13974;BME280;7060;43.770;4.008;2023-06-14T06:27:13;100470.31;;;20.45;78.62
13974;BME280;7060;43.770;4.008;2023-06-14T06:29:43;100469.47;;;20.51;78.36
13974;BME280;7060;43.770;4.008;2023-06-14T06:32:12;100473.63;;;20.54;77.61
13974;BME280;7060;43.770;4.008;2023-06-14T06:34:40;100475.25;;;20.61;77.30
13974;BME280;7060;43.770;4.008;2023-06-14T06:37:09;100479.94;;;20.79;78.12
13974;BME280;7060;43.770;4.008;2023-06-14T06:39:37;100485.63;;;21.34;79.76
13974;BME280;7060;43.770;4.008;2023-06-14T06:42:06;100483.81;;;21.96;77.95
13974;BME280;7060;43.770;4.008;2023-06-14T06:44:36;100480.88;;;22.64;73.79
13974;BME280;7060;43.770;4.008;2023-06-14T06:47:07;100482.94;;;23.22;71.05
13974;BME280;7060;43.770;4.008;2023-06-14T06:49:36;100478.47;;;23.86;69.74
13974;BME280;7060;43.770;4.008;2023-06-14T06:52:06;100478.06;;;24.57;67.48
13974;BME280;7060;43.770;4.008;2023-06-14T06:54:35;100479.94;;;25.14;65.28
13974;BME280;7060;43.770;4.008;2023-06-14T06:57:03;100473.78;;;25.74;61.59
13974;BME280;7060;43.770;4.008;2023-06-14T06:59:33;100462.69;;;26.24;59.89
13974;BME280;7060;43.770;4.008;2023-06-14T07:02:01;100478.34;;;26.72;57.19
13974;BME280;7060;43.770;4.008;2023-06-14T07:04:31;100479.56;;;27.13;55.99
13974;BME280;7060;43.770;4.008;2023-06-14T07:07:00;100479.09;;;27.58;55.17
13974;BME280;7060;43.770;4.008;2023-06-14T07:09:29;100477.69;;;27.88;53.17
13974;BME280;7060;43.770;4.008;2023-06-14T07:11:57;100478.56;;;28.04;51.59
13974;BME280;7060;43.770;4.008;2023-06-14T07:14:26;100476.69;;;28.09;51.69
13974;BME280;7060;43.770;4.008;2023-06-14T07:16:54;100477.13;;;28.43;48.10
13974;BME280;7060;43.770;4.008;2023-06-14T07:19:23;100476.31;;;28.48;50.03
13974;BME280;7060;43.770;4.008;2023-06-14T07:21:53;100477.44;;;28.52;48.63
13974;BME280;7060;43.770;4.008;2023-06-14T07:24:22;100481.66;;;28.17;49.22
13974;BME280;7060;43.770;4.008;2023-06-14T07:26:51;100483.28;;;28.13;49.23
13974;BME280;7060;43.770;4.008;2023-06-14T07:29:20;100475.63;;;27.73;49.68
13974;BME280;7060;43.770;4.008;2023-06-14T07:31:48;100481.94;;;27.69;50.38
13974;BME280;7060;43.770;4.008;2023-06-14T07:34:17;100479.56;;;27.45;50.78
13974;BME280;7060;43.770;4.008;2023-06-14T07:36:46;100483.94;;;27.41;51.33
13974;BME280;7060;43.770;4.008;2023-06-14T07:39:16;100486.06;;;27.34;51.99
13974;BME280;7060;43.770;4.008;2023-06-14T07:41:44;100485.41;;;27.22;52.20
13974;BME280;7060;43.770;4.008;2023-06-14T07:44:13;100489.09;;;27.06;52.43
13974;BME280;7060;43.770;4.008;2023-06-14T07:46:42;100494.16;;;26.92;53.36
13974;BME280;7060;43.770;4.008;2023-06-14T07:49:11;100496.19;;;26.75;53.99
13974;BME280;7060;43.770;4.008;2023-06-14T07:51:40;100495.78;;;26.61;53.65
13974;BME280;7060;43.770;4.008;2023-06-14T07:54:08;100489.25;;;26.45;54.05
13974;BME280;7060;43.770;4.008;2023-06-14T07:56:39;100500.88;;;26.30;55.39
13974;BME280;7060;43.770;4.008;2023-06-14T07:59:10;100500.09;;;26.13;55.33
13974;BME280;7060;43.770;4.008;2023-06-14T08:01:39;100502.44;;;25.88;57.08
13974;BME280;7060;43.770;4.008;2023-06-14T08:04:08;100501.25;;;25.79;58.52
13974;BME280;7060;43.770;4.008;2023-06-14T08:06:37;100490.53;;;25.77;57.67
13974;BME280;7060;43.770;4.008;2023-06-14T08:09:06;100497.22;;;25.86;58.61
13974;BME280;7060;43.770;4.008;2023-06-14T08:11:34;100492.06;;;25.90;58.02
13974;BME280;7060;43.770;4.008;2023-06-14T08:14:05;100487.84;;;25.99;55.42
13974;BME280;7060;43.770;4.008;2023-06-14T08:16:33;100494.34;;;26.15;54.61
13974;BME280;7060;43.770;4.008;2023-06-14T08:19:02;100487.84;;;26.43;54.06
13974;BME280;7060;43.770;4.008;2023-06-14T08:21:31;100481.91;;;26.73;53.49
13974;BME280;7060;43.770;4.008;2023-06-14T08:24:00;100484.94;;;27.03;53.36
13974;BME280;7060;43.770;4.008;2023-06-14T08:26:29;100481.56;;;27.23;51.93
13974;BME280;7060;43.770;4.008;2023-06-14T08:28:58;100487.78;;;27.40;51.66
13974;BME280;7060;43.770;4.008;2023-06-14T08:31:29;100428.81;;;27.16;51.79
13974;BME280;7060;43.770;4.008;2023-06-14T08:33:59;100486.16;;;27.44;50.75
13974;BME280;7060;43.770;4.008;2023-06-14T08:36:29;100478.75;;;27.45;50.14
13974;BME280;7060;43.770;4.008;2023-06-14T08:38:58;100481.00;;;27.53;49.99
13974;BME280;7060;43.770;4.008;2023-06-14T08:41:28;100477.97;;;27.54;50.48
13974;BME280;7060;43.770;4.008;2023-06-14T08:43:57;100495.28;;;27.55;51.02
13974;BME280;7060;43.770;4.008;2023-06-14T08:46:26;100488.97;;;27.54;50.10
13974;BME280;7060;43.770;4.008;2023-06-14T08:48:57;100489.38;;;27.36;49.01
13974;BME280;7060;43.770;4.008;2023-06-14T08:51:26;100491.78;;;27.27;50.73
13974;BME280;7060;43.770;4.008;2023-06-14T08:54:01;100486.44;;;27.16;52.30
13974;BME280;7060;43.770;4.008;2023-06-14T08:56:31;100489.25;;;27.21;51.05
13974;BME280;7060;43.770;4.008;2023-06-14T08:59:01;100491.47;;;27.24;50.33
13974;BME280;7060;43.770;4.008;2023-06-14T09:01:33;100488.50;;;27.30;49.88
13974;BME280;7060;43.770;4.008;2023-06-14T09:04:04;100499.06;;;27.44;49.80
13974;BME280;7060;43.770;4.008;2023-06-14T09:06:33;100492.81;;;27.53;50.40
13974;BME280;7060;43.770;4.008;2023-06-14T09:09:04;100489.28;;;27.58;51.14
13974;BME280;7060;43.770;4.008;2023-06-14T09:11:33;100498.38;;;27.63;50.89
13974;BME280;7060;43.770;4.008;2023-06-14T09:14:03;100500.63;;;27.77;51.31
13974;BME280;7060;43.770;4.008;2023-06-14T09:16:32;100499.09;;;27.86;51.57
13974;BME280;7060;43.770;4.008;2023-06-14T09:19:01;100501.22;;;27.79;50.12
13974;BME280;7060;43.770;4.008;2023-06-14T09:21:34;100495.94;;;27.67;50.08
13974;BME280;7060;43.770;4.008;2023-06-14T09:24:03;100499.94;;;27.54;49.37
13974;BME280;7060;43.770;4.008;2023-06-14T09:26:32;100499.38;;;27.52;50.56
13974;BME280;7060;43.770;4.008;2023-06-14T09:29:01;100503.88;;;27.63;51.30
13974;BME280;7060;43.770;4.008;2023-06-14T09:31:29;100503.25;;;27.56;49.29
13974;BME280;7060;43.770;4.008;2023-06-14T09:34:02;100507.47;;;27.32;49.44
13974;BME280;7060;43.770;4.008;2023-06-14T09:36:32;100501.00;;;27.16;49.78
13974;BME280;7060;43.770;4.008;2023-06-14T09:39:02;100496.53;;;27.10;49.10
13974;BME280;7060;43.770;4.008;2023-06-14T09:41:35;100497.97;;;27.18;49.21
13974;BME280;7060;43.770;4.008;2023-06-14T09:44:05;100501.47;;;27.35;48.90
13974;BME280;7060;43.770;4.008;2023-06-14T09:46:38;100491.13;;;27.52;48.22
13974;BME280;7060;43.770;4.008;2023-06-14T09:49:07;100492.22;;;27.51;48.69
13974;BME280;7060;43.770;4.008;2023-06-14T09:51:42;100493.41;;;27.60;48.98
13974;BME280;7060;43.770;4.008;2023-06-14T09:54:15;100498.19;;;27.38;47.92
13974;BME280;7060;43.770;4.008;2023-06-14T09:56:45;100480.88;;;27.06;49.53
13974;BME280;7060;43.770;4.008;2023-06-14T09:59:19;100501.25;;;27.15;49.77
13974;BME280;7060;43.770;4.008;2023-06-14T10:01:57;100488.56;;;27.36;48.85
13974;BME280;7060;43.770;4.008;2023-06-14T10:04:27;100478.47;;;27.46;48.23
13974;BME280;7060;43.770;4.008;2023-06-14T10:07:03;100473.97;;;27.67;48.01
13974;BME280;7060;43.770;4.008;2023-06-14T10:09:33;100498.25;;;27.85;48.28
13974;BME280;7060;43.770;4.008;2023-06-14T10:12:04;100495.91;;;28.09;49.46
13974;BME280;7060;43.770;4.008;2023-06-14T10:14:33;100497.34;;;28.27;45.68
13974;BME280;7060;43.770;4.008;2023-06-14T10:17:08;100500.69;;;28.34;44.90
13974;BME280;7060;43.770;4.008;2023-06-14T10:19:42;100493.88;;;28.42;44.68
13974;BME280;7060;43.770;4.008;2023-06-14T10:22:19;100488.44;;;28.52;44.48
13974;BME280;7060;43.770;4.008;2023-06-14T10:24:51;100488.44;;;28.62;44.61
13974;BME280;7060;43.770;4.008;2023-06-14T10:27:19;100473.28;;;28.54;40.92
13974;BME280;7060;43.770;4.008;2023-06-14T10:30:05;100476.84;;;28.45;43.16
13974;BME280;7060;43.770;4.008;2023-06-14T10:32:35;100477.97;;;28.49;43.38
13974;BME280;7060;43.770;4.008;2023-06-14T10:35:24;100478.78;;;28.49;43.44
13974;BME280;7060;43.770;4.008;2023-06-14T10:37:54;100485.97;;;28.60;44.16
13974;BME280;7060;43.770;4.008;2023-06-14T10:40:31;100476.38;;;28.78;44.52
13974;BME280;7060;43.770;4.008;2023-06-14T10:43:21;100481.34;;;28.96;43.88
13974;BME280;7060;43.770;4.008;2023-06-14T10:46:13;100473.41;;;29.10;43.93
13974;BME280;7060;43.770;4.008;2023-06-14T10:48:42;100480.84;;;29.25;42.66
13974;BME280;7060;43.770;4.008;2023-06-14T10:51:20;100472.59;;;29.35;42.40
13974;BME280;7060;43.770;4.008;2023-06-14T10:53:50;100473.13;;;29.47;43.72
13974;BME280;7060;43.770;4.008;2023-06-14T10:56:29;100469.81;;;29.55;41.64
13974;BME280;7060;43.770;4.008;2023-06-14T10:58:58;100472.56;;;29.55;41.00
13974;BME280;7060;43.770;4.008;2023-06-14T11:01:50;100465.31;;;29.95;39.69
13974;BME280;7060;43.770;4.008;2023-06-14T11:04:34;100469.28;;;29.63;40.59
13974;BME280;7060;43.770;4.008;2023-06-14T11:07:25;100463.50;;;29.35;41.25
13974;BME280;7060;43.770;4.008;2023-06-14T11:10:10;100470.94;;;29.09;41.53
13974;BME280;7060;43.770;4.008;2023-06-14T11:12:45;100466.22;;;28.89;41.41
13974;BME280;7060;43.770;4.008;2023-06-14T11:15:16;100462.63;;;28.83;42.37
13974;BME280;7060;43.770;4.008;2023-06-14T11:17:50;100460.16;;;28.97;41.65
13974;BME280;7060;43.770;4.008;2023-06-14T11:20:20;100457.16;;;29.14;41.51
13974;BME280;7060;43.770;4.008;2023-06-14T11:22:51;100461.03;;;29.28;40.71
13974;BME280;7060;43.770;4.008;2023-06-14T11:25:22;100459.06;;;29.39;42.01
13974;BME280;7060;43.770;4.008;2023-06-14T11:27:50;100457.97;;;29.45;41.07
13974;BME280;7060;43.770;4.008;2023-06-14T11:30:19;100461.81;;;29.44;40.91
13974;BME280;7060;43.770;4.008;2023-06-14T11:32:48;100458.53;;;29.52;39.10
13974;BME280;7060;43.770;4.008;2023-06-14T11:35:18;100452.47;;;29.55;39.03
13974;BME280;7060;43.770;4.008;2023-06-14T11:37:48;100439.50;;;29.66;40.00
13974;BME280;7060;43.770;4.008;2023-06-14T11:40:19;100443.91;;;29.72;38.74
13974;BME280;7060;43.770;4.008;2023-06-14T11:42:49;100444.72;;;29.72;39.15
13974;BME280;7060;43.770;4.008;2023-06-14T11:45:18;100435.41;;;29.63;39.03
13974;BME280;7060;43.770;4.008;2023-06-14T11:47:48;100437.03;;;29.64;39.12
13974;BME280;7060;43.770;4.008;2023-06-14T11:50:16;100434.53;;;29.68;38.57
13974;BME280;7060;43.770;4.008;2023-06-14T11:52:52;100432.88;;;29.72;38.08
13974;BME280;7060;43.770;4.008;2023-06-14T11:55:21;100425.44;;;29.72;39.53
13974;BME280;7060;43.770;4.008;2023-06-14T11:57:53;100422.38;;;29.84;38.29
13974;BME280;7060;43.770;4.008;2023-06-14T12:00:24;100418.75;;;29.93;38.04
13974;BME280;7060;43.770;4.008;2023-06-14T12:02:55;100416.78;;;30.04;38.30
13974;BME280;7060;43.770;4.008;2023-06-14T12:05:25;100421.47;;;30.14;37.62
13974;BME280;7060;43.770;4.008;2023-06-14T12:07:58;100417.84;;;30.18;38.07
13974;BME280;7060;43.770;4.008;2023-06-14T12:10:28;100417.59;;;30.15;36.82
13974;BME280;7060;43.770;4.008;2023-06-14T12:12:58;100420.63;;;30.13;37.42
13974;BME280;7060;43.770;4.008;2023-06-14T12:15:28;100409.59;;;30.18;38.56
13974;BME280;7060;43.770;4.008;2023-06-14T12:17:58;100406.00;;;30.18;37.53
13974;BME280;7060;43.770;4.008;2023-06-14T12:20:29;100410.09;;;30.20;38.11
13974;BME280;7060;43.770;4.008;2023-06-14T12:22:59;100397.41;;;30.19;37.80
13974;BME280;7060;43.770;4.008;2023-06-14T12:25:31;100399.34;;;30.19;38.05
13974;BME280;7060;43.770;4.008;2023-06-14T12:28:04;100390.28;;;30.18;37.16
13974;BME280;7060;43.770;4.008;2023-06-14T12:30:35;100389.13;;;30.24;37.21
13974;BME280;7060;43.770;4.008;2023-06-14T12:33:05;100388.00;;;30.30;37.32
13974;BME280;7060;43.770;4.008;2023-06-14T12:35:34;100375.84;;;30.32;36.93
13974;BME280;7060;43.770;4.008;2023-06-14T12:38:03;100390.41;;;30.42;38.35
13974;BME280;7060;43.770;4.008;2023-06-14T12:40:31;100392.59;;;30.45;38.60
13974;BME280;7060;43.770;4.008;2023-06-14T12:43:01;100385.63;;;30.53;38.23
13974;BME280;7060;43.770;4.008;2023-06-14T12:45:31;100382.84;;;30.58;38.24
13974;BME280;7060;43.770;4.008;2023-06-14T12:48:00;100374.53;;;30.63;37.81
13974;BME280;7060;43.770;4.008;2023-06-14T12:50:29;100372.34;;;30.60;37.95
13974;BME280;7060;43.770;4.008;2023-06-14T12:52:57;100371.25;;;30.61;36.47
13974;BME280;7060;43.770;4.008;2023-06-14T12:55:26;100361.84;;;30.62;37.87
13974;BME280;7060;43.770;4.008;2023-06-14T12:57:55;100362.94;;;30.66;36.85
13974;BME280;7060;43.770;4.008;2023-06-14T13:00:25;100362.09;;;30.66;36.39
13974;BME280;7060;43.770;4.008;2023-06-14T13:02:54;100361.84;;;30.62;36.35
13974;BME280;7060;43.770;4.008;2023-06-14T13:05:23;100362.41;;;30.59;35.96
13974;BME280;7060;43.770;4.008;2023-06-14T13:07:51;100372.88;;;30.67;36.18
13974;BME280;7060;43.770;4.008;2023-06-14T13:10:21;100365.91;;;30.75;37.15
13974;BME280;7060;43.770;4.008;2023-06-14T13:12:50;100367.38;;;30.62;34.68
13974;BME280;7060;43.770;4.008;2023-06-14T13:15:18;100372.66;;;30.53;37.17
13974;BME280;7060;43.770;4.008;2023-06-14T13:17:48;100376.75;;;30.61;36.25